createdAt,value
2018-09-22T00:01:03.200Z,1.30
2018-09-22T00:03:31.065Z,1.50
2018-09-22T00:05:59.308Z,1.30
2018-09-22T00:08:27.070Z,1.33
2018-09-22T00:10:54.898Z,1.72
2018-09-22T00:13:22.717Z,1.20
2018-09-22T00:15:51.025Z,1.60
2018-09-22T00:18:18.906Z,1.30
2018-09-22T00:20:46.733Z,1.13
2018-09-22T00:23:14.570Z,1.50
2018-09-22T00:25:43.053Z,1.82
2018-09-22T00:28:10.919Z,1.37
2018-09-22T00:30:38.709Z,1.33
2018-09-22T00:35:34.038Z,1.27
2018-09-22T00:40:29.374Z,1.13
2018-09-22T00:42:57.582Z,1.23
2018-09-22T00:45:25.308Z,1.50
2018-09-22T00:47:53.466Z,1.40
2018-09-22T00:50:21.199Z,1.53
2018-09-22T00:52:49.042Z,1.67
2018-09-22T00:55:16.906Z,1.37
2018-09-22T00:57:44.745Z,1.10
2018-09-22T01:00:12.798Z,1.13
2018-09-22T01:02:40.970Z,1.10
2018-09-22T01:05:08.922Z,1.17
2018-09-22T01:07:36.661Z,1.30
2018-09-22T01:10:04.595Z,1.20
2018-09-22T01:12:32.500Z,1.17
2018-09-22T01:15:00.557Z,1.07
2018-09-22T01:17:28.470Z,1.30
2018-09-22T01:19:56.213Z,1.30
2018-09-22T01:22:30.275Z,1.37
2018-09-22T01:24:58.039Z,1.30
2018-09-22T01:27:25.929Z,1.30
2018-09-22T01:31:05.393Z,1.30
2018-09-22T01:33:33.195Z,1.30
2018-09-22T01:36:01.607Z,1.00
2018-09-22T01:38:29.520Z,1.00
2018-09-22T01:40:57.337Z,1.27
2018-09-22T01:43:25.066Z,1.37
2018-09-22T02:26:39.290Z,1.40
2018-09-22T02:29:06.994Z,1.20
2018-09-22T02:34:02.068Z,1.20
2018-09-22T02:36:29.977Z,1.05
2018-09-22T02:41:25.066Z,1.27
2018-09-22T02:43:52.878Z,1.25
2018-09-22T02:46:20.690Z,1.00
2018-09-22T02:48:48.415Z,1.20
2018-09-22T02:51:16.313Z,1.10
2018-09-22T02:53:44.082Z,1.60
2018-09-22T02:56:11.942Z,1.20
2018-09-22T02:58:39.738Z,1.17
2018-09-22T03:01:07.570Z,1.07
2018-09-22T03:03:35.223Z,1.07
2018-09-22T03:06:03.006Z,0.97
2018-09-22T03:08:30.958Z,1.03
2018-09-22T03:10:58.874Z,1.37
2018-09-22T03:13:26.689Z,1.07
2018-09-22T03:15:54.507Z,1.10
2018-09-22T03:18:22.466Z,1.07
2018-09-22T03:20:50.212Z,1.37
2018-09-22T03:23:17.981Z,1.20
2018-09-22T03:25:45.776Z,1.47
2018-09-22T03:28:13.585Z,1.47
2018-09-22T03:30:41.344Z,1.30
2018-09-22T03:33:09.015Z,1.13
2018-09-22T03:35:36.703Z,1.20
2018-09-22T03:38:04.585Z,1.23
2018-09-22T03:42:19.607Z,1.20
2018-09-22T03:47:14.767Z,1.20
2018-09-22T03:49:42.599Z,1.37
2018-09-22T03:52:10.565Z,1.20
2018-09-22T03:57:05.968Z,1.17
2018-09-22T04:02:01.005Z,1.20
2018-09-22T04:04:28.943Z,1.02
2018-09-22T04:09:24.310Z,1.20
2018-09-22T04:11:52.261Z,1.10
2018-09-22T04:14:20.003Z,1.20
2018-09-22T04:19:15.562Z,1.00
2018-09-22T04:21:43.299Z,1.20
2018-09-22T04:24:17.984Z,1.17
2018-09-22T04:26:46.857Z,1.20
2018-09-22T04:29:14.706Z,1.00
2018-09-22T04:31:42.778Z,1.07
2018-09-22T04:34:10.842Z,1.20
2018-09-22T04:36:38.707Z,1.40
2018-09-22T04:39:08.031Z,0.82
2018-09-22T04:44:05.067Z,1.40
2018-09-22T04:46:33.385Z,0.90
2018-09-22T04:49:01.225Z,1.10
2018-09-22T04:51:29.302Z,1.20
2018-09-22T04:53:57.230Z,1.00
2018-09-22T04:57:58.862Z,1.02
2018-09-22T05:00:26.702Z,1.17
2018-09-22T05:02:54.611Z,1.30
2018-09-22T05:05:22.552Z,1.20
2018-09-22T05:07:50.269Z,1.60
2018-09-22T05:10:18.069Z,1.00
2018-09-22T05:12:45.891Z,1.27
2018-09-22T05:17:40.795Z,1.40
2018-09-22T05:20:08.685Z,1.47
2018-09-22T05:22:36.591Z,1.23
2018-09-22T05:25:04.482Z,1.10
2018-09-22T05:27:32.434Z,1.00
2018-09-22T05:30:00.221Z,1.17
2018-09-22T05:32:27.766Z,1.45
2018-09-22T05:34:55.617Z,1.17
2018-09-22T05:37:23.581Z,1.33
2018-09-22T05:39:51.394Z,1.10
2018-09-22T05:42:19.207Z,1.20
2018-09-22T05:44:46.890Z,1.00
2018-09-22T05:47:15.713Z,1.10
2018-09-22T05:49:43.686Z,1.03
2018-09-22T05:52:11.582Z,1.10
2018-09-22T05:54:39.438Z,0.93
2018-09-22T05:59:34.482Z,0.90
2018-09-22T06:02:02.287Z,1.20
2018-09-22T06:04:29.983Z,1.07
2018-09-22T06:06:57.754Z,1.20
2018-09-22T06:09:25.594Z,1.40
2018-09-22T06:11:53.439Z,1.20
2018-09-22T06:16:48.829Z,1.17
2018-09-22T06:19:16.751Z,1.10
2018-09-22T06:21:44.864Z,1.07
2018-09-22T06:24:13.845Z,1.00
2018-09-22T06:26:42.457Z,1.00
2018-09-22T06:29:10.397Z,1.20
2018-09-22T06:31:38.061Z,1.03
2018-09-22T06:34:05.769Z,1.07
2018-09-22T06:36:33.586Z,1.20
2018-09-22T06:40:43.710Z,1.20
2018-09-22T06:43:11.778Z,1.20
2018-09-22T06:45:39.753Z,1.05
2018-09-22T06:48:07.715Z,1.40
2018-09-22T06:50:35.582Z,1.20
2018-09-22T06:53:03.434Z,1.17
2018-09-22T06:57:58.666Z,1.20
2018-09-22T07:00:26.478Z,1.30
2018-09-22T07:02:54.503Z,1.10
2018-09-22T07:05:22.402Z,1.27
2018-09-22T07:07:50.426Z,1.47
2018-09-22T07:10:18.207Z,1.30
2018-09-22T07:12:46.013Z,1.37
2018-09-22T07:15:14.309Z,1.30
2018-09-22T07:17:42.026Z,1.10
2018-09-22T07:20:09.778Z,1.02
2018-09-22T07:22:43.562Z,1.40
2018-09-22T07:25:11.594Z,1.27
2018-09-22T07:30:06.704Z,1.17
2018-09-22T07:32:34.831Z,1.40
2018-09-22T07:35:02.646Z,1.50
2018-09-22T07:37:30.586Z,1.40
2018-09-22T07:39:58.477Z,1.27
2018-09-22T07:42:26.212Z,1.22
2018-09-22T07:44:54.049Z,1.57
2018-09-22T07:47:21.866Z,1.33
2018-09-22T07:49:49.673Z,1.53
2018-09-22T07:52:17.891Z,1.52
2018-09-22T07:54:45.673Z,1.30
2018-09-22T07:57:13.651Z,1.37
2018-09-22T07:59:41.510Z,1.23
2018-09-22T08:02:09.490Z,1.40
2018-09-22T08:04:37.211Z,1.33
2018-09-22T08:07:05.474Z,1.70
2018-09-22T08:09:33.309Z,1.62
2018-09-22T08:12:01.170Z,1.70
2018-09-22T08:14:28.946Z,1.80
2018-09-22T08:16:56.750Z,1.60
2018-09-22T08:19:24.774Z,2.13
2018-09-22T08:21:52.680Z,1.63
2018-09-22T08:24:20.623Z,1.40
2018-09-22T08:26:48.462Z,1.60
2018-09-22T08:29:22.054Z,1.50
2018-09-22T08:34:17.782Z,4.37
2018-09-22T08:36:45.782Z,2.67
2018-09-22T08:39:14.275Z,2.35
2018-09-22T08:41:42.207Z,2.20
2018-09-22T08:44:10.816Z,1.80
2018-09-22T08:46:38.697Z,1.93
2018-09-22T08:49:06.762Z,2.10
2018-09-22T08:54:02.283Z,2.17
2018-09-22T08:56:30.313Z,1.87
2018-09-22T08:58:58.306Z,1.73
2018-09-22T09:01:26.030Z,1.90
2018-09-22T09:03:54.024Z,1.50
2018-09-22T09:08:49.326Z,2.03
2018-09-22T09:11:17.103Z,1.70
2018-09-22T09:13:45.080Z,1.70
2018-09-22T09:16:13.036Z,1.60
2018-09-22T09:18:40.906Z,1.57
2018-09-22T09:21:08.681Z,1.60
2018-09-22T09:23:37.825Z,2.00
2018-09-22T09:26:05.678Z,1.73
2018-09-22T09:28:33.754Z,1.60
2018-09-22T09:31:11.710Z,1.87
2018-09-22T09:33:39.606Z,1.67
2018-09-22T09:36:07.530Z,1.93
2018-09-22T09:38:35.610Z,1.57
2018-09-22T09:41:03.582Z,1.32
2018-09-22T09:43:31.745Z,2.07
2018-09-22T09:48:26.727Z,1.47
2018-09-22T09:50:54.683Z,1.40
2018-09-22T09:53:22.394Z,4.23
2018-09-22T09:55:50.082Z,1.80
2018-09-22T09:58:17.961Z,2.07
2018-09-22T10:05:42.994Z,1.60
2018-09-22T10:08:10.817Z,2.13
2018-09-22T10:10:38.724Z,1.67
2018-09-22T10:13:06.795Z,2.03
2018-09-22T10:15:34.767Z,2.22
2018-09-22T10:18:02.658Z,1.73
2018-09-22T10:20:30.474Z,2.13
2018-09-22T10:22:58.224Z,1.87
2018-09-22T10:25:26.227Z,2.05
2018-09-22T10:27:54.053Z,1.80
2018-09-22T10:30:21.882Z,1.57
2018-09-22T10:32:49.722Z,1.60
2018-09-22T10:35:17.565Z,2.00
2018-09-22T10:37:45.313Z,2.07
2018-09-22T10:40:13.038Z,2.10
2018-09-22T10:42:40.822Z,2.03
2018-09-22T10:45:08.749Z,1.53
2018-09-22T10:47:36.594Z,1.30
2018-09-22T10:50:04.690Z,1.70
2018-09-22T10:52:32.629Z,1.87
2018-09-22T10:55:00.657Z,2.30
2018-09-22T10:57:28.686Z,1.70
2018-09-22T10:59:56.570Z,1.90
2018-09-22T11:02:24.394Z,1.60
2018-09-22T11:04:52.446Z,2.30
2018-09-22T11:07:20.216Z,1.92
2018-09-22T11:09:48.239Z,1.70
2018-09-22T11:12:15.992Z,1.97
2018-09-22T11:17:24.537Z,2.00
2018-09-22T11:19:53.812Z,2.50
2018-09-22T11:24:53.530Z,2.23
2018-09-22T11:27:24.056Z,1.80
2018-09-22T11:29:52.059Z,2.50
2018-09-22T11:32:20.225Z,2.23
2018-09-22T11:37:15.419Z,2.27
2018-09-22T11:39:43.204Z,2.20
2018-09-22T11:42:10.965Z,2.40
2018-09-22T11:44:38.769Z,1.80
2018-09-22T11:47:06.921Z,2.10
2018-09-22T11:49:35.033Z,2.10
2018-09-22T11:52:40.479Z,2.27
2018-09-22T11:55:09.930Z,1.63
2018-09-22T11:57:37.678Z,1.50
2018-09-22T12:00:06.595Z,1.97
2018-09-22T12:02:34.445Z,1.73
2018-09-22T12:05:04.465Z,2.03
2018-09-22T12:07:32.333Z,1.77
2018-09-22T12:10:00.068Z,2.17
2018-09-22T12:12:36.256Z,2.80
2018-09-22T12:15:04.050Z,2.70
2018-09-22T12:17:31.894Z,3.77
2018-09-22T12:22:27.478Z,4.65
2018-09-22T12:24:55.499Z,4.40
2018-09-22T12:27:23.422Z,4.93
2018-09-22T12:29:51.601Z,4.37
2018-09-22T12:32:19.630Z,4.27
2018-09-22T12:34:47.417Z,4.93
2018-09-22T12:37:15.231Z,5.00
2018-09-22T12:39:43.018Z,5.07
2018-09-22T12:42:10.877Z,4.00
2018-09-22T12:47:06.279Z,3.80
2018-09-22T12:49:34.184Z,3.47
2018-09-22T12:52:02.235Z,3.53
2018-09-22T12:54:30.873Z,3.30
2018-09-22T12:56:58.778Z,2.70
2018-09-22T13:01:56.470Z,2.50
2018-09-22T13:04:24.561Z,2.23
2018-09-22T13:06:52.470Z,2.47
2018-09-22T13:09:23.575Z,2.10
2018-09-22T13:11:51.502Z,2.53
2018-09-22T13:16:46.622Z,1.90
2018-09-22T13:19:14.498Z,1.77
2018-09-22T13:21:46.393Z,1.80
2018-09-22T13:24:14.066Z,1.93
2018-09-22T13:26:41.959Z,1.83
2018-09-22T13:29:09.886Z,1.70
2018-09-22T13:31:37.682Z,1.80
2018-09-22T13:34:05.379Z,1.90
2018-09-22T13:36:33.290Z,2.10
2018-09-22T13:39:01.222Z,1.73
2018-09-22T13:41:28.801Z,1.47
2018-09-22T13:43:56.882Z,1.67
2018-09-22T13:48:51.897Z,1.80
2018-09-22T13:51:20.058Z,1.60
2018-09-22T13:53:47.942Z,1.80
2018-09-22T13:56:15.810Z,1.50
2018-09-22T13:58:43.605Z,1.80
2018-09-22T14:01:11.495Z,1.63
2018-09-22T14:03:39.426Z,1.80
2018-09-22T14:06:07.322Z,1.60
2018-09-22T14:08:35.074Z,1.40
2018-09-22T14:11:03.087Z,1.30
2018-09-22T14:13:31.683Z,1.53
2018-09-22T14:15:59.439Z,1.43
2018-09-22T14:18:27.197Z,1.67
2018-09-22T14:20:55.066Z,1.53
2018-09-22T14:23:22.922Z,1.50
2018-09-22T14:25:50.678Z,1.60
2018-09-22T14:28:18.553Z,1.60
2018-09-22T14:30:46.374Z,1.60
2018-09-22T14:33:14.155Z,1.50
2018-09-22T14:35:42.046Z,1.43
2018-09-22T14:38:09.794Z,1.50
2018-09-22T14:40:38.028Z,1.50
2018-09-22T14:43:06.466Z,1.50
2018-09-22T14:48:01.466Z,1.50
2018-09-22T14:50:29.228Z,1.93
2018-09-22T14:52:57.091Z,1.53
2018-09-22T14:55:26.073Z,1.37
2018-09-22T14:57:57.901Z,1.40
2018-09-22T15:00:26.226Z,1.50
2018-09-22T15:02:54.009Z,1.30
2018-09-22T15:05:21.954Z,1.50
2018-09-22T15:07:49.907Z,1.73
2018-09-22T15:12:45.679Z,1.67
2018-09-22T15:15:13.753Z,1.25
2018-09-22T15:17:41.903Z,1.50
2018-09-22T15:20:09.730Z,1.37
2018-09-22T15:22:37.594Z,1.60
2018-09-22T15:25:05.422Z,1.53
2018-09-22T15:27:33.269Z,1.30
2018-09-22T15:30:01.189Z,1.60
2018-09-22T15:32:29.014Z,1.50
2018-09-22T15:34:56.887Z,2.50
2018-09-22T15:37:24.958Z,1.93
2018-09-22T15:39:52.815Z,2.30
2018-09-22T15:42:20.682Z,2.23
2018-09-22T15:44:48.667Z,2.12
2018-09-22T15:47:16.402Z,2.07
2018-09-22T15:52:22.697Z,2.15
2018-09-22T15:57:17.705Z,1.70
2018-09-22T15:59:45.566Z,1.90
2018-09-22T16:02:13.232Z,2.37
2018-09-22T16:04:41.294Z,1.92
2018-09-22T16:07:09.775Z,1.70
2018-09-22T16:09:37.601Z,1.60
2018-09-22T16:12:05.870Z,1.70
2018-09-22T16:14:33.703Z,2.63
2018-09-22T16:17:01.410Z,2.03
2018-09-22T16:19:30.390Z,1.63
2018-09-22T16:21:58.188Z,2.00
2018-09-22T16:24:25.978Z,2.43
2018-09-22T16:26:53.761Z,2.33
2018-09-22T16:29:21.598Z,2.20
2018-09-22T16:34:16.878Z,2.87
2018-09-22T16:39:12.017Z,2.20
2018-09-22T16:41:40.438Z,2.20
2018-09-22T16:44:09.563Z,2.30
2018-09-22T16:46:37.219Z,2.43
2018-09-22T16:51:32.606Z,2.07
2018-09-22T16:54:00.627Z,2.03
2018-09-22T16:58:55.705Z,1.87
2018-09-22T17:01:23.632Z,2.53
2018-09-22T17:03:51.594Z,2.40
2018-09-22T17:07:53.221Z,2.67
2018-09-22T17:10:21.032Z,2.33
2018-09-22T17:15:16.598Z,2.50
2018-09-22T17:17:44.465Z,2.37
2018-09-22T17:20:12.395Z,2.47
2018-09-22T17:22:40.317Z,2.27
2018-09-22T17:25:08.313Z,2.30
2018-09-22T17:27:36.272Z,2.10
2018-09-22T17:30:04.066Z,2.00
2018-09-22T17:32:31.958Z,2.47
2018-09-22T17:34:59.926Z,1.83
2018-09-22T17:39:54.998Z,2.50
2018-09-22T17:42:23.059Z,3.72
2018-09-22T17:47:18.398Z,2.60
2018-09-22T17:49:46.398Z,2.07
2018-09-22T17:52:17.837Z,1.97
2018-09-22T17:54:45.698Z,2.57
2018-09-22T17:57:13.562Z,2.77
2018-09-22T17:59:41.777Z,2.47
2018-09-22T18:02:09.677Z,2.50
2018-09-22T18:04:37.597Z,2.83
2018-09-22T18:07:05.618Z,2.37
2018-09-22T18:09:33.873Z,2.30
2018-09-22T18:12:02.490Z,2.30
2018-09-22T18:16:58.307Z,2.30
2018-09-22T18:19:26.559Z,3.10
2018-09-22T18:21:54.507Z,2.30
2018-09-22T18:24:22.628Z,2.53
2018-09-22T18:29:18.022Z,2.53
2018-09-22T18:34:13.302Z,2.13
2018-09-22T18:36:41.353Z,2.20
2018-09-22T18:39:09.301Z,2.50
2018-09-22T18:41:37.559Z,1.80
2018-09-22T18:44:05.578Z,2.33
2018-09-22T18:48:07.922Z,2.12
2018-09-22T18:50:36.486Z,2.50
2018-09-22T18:53:04.927Z,2.17
2018-09-22T18:55:33.988Z,2.10
2018-09-22T19:00:29.918Z,1.93
2018-09-22T19:02:57.717Z,2.70
2018-09-22T19:05:25.576Z,2.33
2018-09-22T19:07:53.473Z,1.87
2018-09-22T19:10:21.185Z,2.00
2018-09-22T19:12:49.437Z,1.98
2018-09-22T19:15:24.629Z,1.85
2018-09-22T19:17:57.210Z,2.47
2018-09-22T19:20:31.493Z,2.90
2018-09-22T19:23:02.806Z,2.10
2018-09-22T19:25:33.018Z,2.37
2018-09-22T19:30:43.439Z,2.67
2018-09-22T19:33:22.525Z,2.37
2018-09-22T19:36:56.622Z,2.90
2018-09-22T19:39:34.190Z,2.37
2018-09-22T19:42:17.654Z,2.07
2018-09-22T19:44:54.795Z,2.00
2018-09-22T19:48:31.733Z,2.10
2018-09-22T19:51:02.877Z,2.60
2018-09-22T19:53:30.741Z,2.20
2018-09-22T19:55:58.587Z,2.10
2018-09-22T19:58:26.560Z,2.13
2018-09-22T20:00:54.306Z,1.77
2018-09-22T20:03:22.030Z,2.70
2018-09-22T20:05:50.027Z,1.93
2018-09-22T20:08:17.914Z,2.17
2018-09-22T20:10:45.909Z,1.70
2018-09-22T20:18:08.743Z,2.10
2018-09-22T20:20:36.578Z,1.93
2018-09-22T20:23:04.505Z,2.17
2018-09-22T20:25:32.330Z,2.07
2018-09-22T20:28:00.202Z,2.20
2018-09-22T20:30:28.082Z,1.87
2018-09-22T20:32:55.729Z,1.87
2018-09-22T20:35:23.577Z,2.20
2018-09-22T20:37:51.209Z,1.90
2018-09-22T20:40:24.756Z,1.70
2018-09-22T20:42:52.589Z,2.00
2018-09-22T20:45:20.438Z,2.10
2018-09-22T20:47:48.217Z,1.83
2018-09-22T20:52:43.207Z,2.17
2018-09-22T20:55:11.058Z,1.65
2018-09-22T20:57:39.012Z,1.93
2018-09-22T21:00:08.405Z,2.20
2018-09-22T21:02:36.173Z,1.90
2018-09-22T21:05:03.970Z,1.75
2018-09-22T21:07:31.796Z,2.20
2018-09-22T21:09:59.871Z,2.35
2018-09-22T21:12:27.734Z,2.20
2018-09-22T21:15:56.746Z,2.00
2018-09-22T21:20:52.007Z,2.20
2018-09-22T21:23:19.877Z,1.72
2018-09-22T21:25:47.723Z,2.00
2018-09-22T21:28:15.726Z,2.10
2018-09-22T21:30:43.844Z,2.20
2018-09-22T21:33:11.679Z,1.90
2018-09-22T21:35:39.546Z,1.93
2018-09-22T21:38:07.530Z,2.10
2018-09-22T21:40:35.342Z,2.10
2018-09-22T21:43:03.050Z,2.47
2018-09-22T21:45:30.930Z,2.20
2018-09-22T21:49:05.666Z,2.20
2018-09-22T21:51:33.545Z,1.80
2018-09-22T21:54:01.220Z,2.10
2018-09-22T21:56:28.873Z,1.98
2018-09-22T21:58:56.650Z,2.37
2018-09-22T22:01:30.054Z,2.47
2018-09-22T22:06:25.244Z,2.10
2018-09-22T22:08:53.280Z,2.42
2018-09-22T22:11:21.053Z,1.87
2018-09-22T22:16:04.130Z,2.10
2018-09-22T22:18:32.030Z,1.90
2018-09-22T22:20:59.841Z,2.10
2018-09-22T22:23:27.677Z,1.90
2018-09-22T22:25:55.573Z,1.90
2018-09-22T22:28:23.305Z,2.10
2018-09-22T22:30:51.033Z,1.60
2018-09-22T22:33:18.752Z,1.87
2018-09-22T22:35:46.625Z,1.87
2018-09-22T22:38:15.024Z,1.57
2018-09-22T22:43:10.027Z,2.03
2018-09-22T22:45:37.954Z,2.10
2018-09-22T22:48:05.759Z,1.87
2018-09-22T22:53:09.812Z,2.00
2018-09-22T22:55:37.596Z,1.70
2018-09-22T22:58:05.543Z,1.70
2018-09-22T23:01:39.392Z,1.73
2018-09-22T23:04:07.616Z,1.97
2018-09-22T23:06:35.413Z,2.33
2018-09-22T23:09:04.434Z,1.95
2018-09-22T23:11:32.214Z,2.07
2018-09-22T23:16:40.957Z,1.80
2018-09-22T23:19:09.066Z,1.70
2018-09-22T23:21:36.986Z,2.27
2018-09-22T23:24:04.882Z,1.67
2018-09-22T23:26:33.726Z,2.10
2018-09-22T23:29:01.638Z,1.80
2018-09-22T23:31:29.591Z,1.80
2018-09-22T23:33:57.530Z,2.00
2018-09-22T23:38:52.531Z,1.32
2018-09-22T23:41:20.295Z,1.60
2018-09-22T23:43:48.014Z,1.40
2018-09-22T23:48:04.699Z,1.87
2018-09-22T23:50:32.590Z,1.73
2018-09-22T23:53:00.567Z,1.50
2018-09-22T23:57:55.750Z,1.50
